Últimos artigos:
Visita à exposição MOTION no Guggenheim de Bilbao
MSK144, FT8… using an IC-9700 and WSJT-X
Resolvendo um problema de áudio no GNU Radio
Converter um número Real para o formato binário em vírgula flutuante segundo a Norma IEEE-754
VirtualBox sobre Debian 10 (buster) não encontra dispositivos USB
Falta de som no Morse Runner em Linux?
Últimas fotos:
Últimos METARs:
LPAZ 301500Z 02007KT 350V050 9999 FEW016 S...
LPFR 301500Z 20008KT CAVOK 22/11 Q1016=
LPHR 301500Z 19005KT 140V240 9999 BKN040 2...
LPLA 301500Z /////KT 9999 FEW022 SCT035 23...
LPMA 301500Z 36014KT 330V040 9999 SCT015 2...
LPPD 301500Z 28009KT 9999 FEW014 BKN030 21...
LPPR 301500Z 32012KT CAVOK 18/12 Q1019=
LPPS 301500Z 01012KT 350V050 9999 SCT015 2...
LPPT 301500Z 34012KT 290V360 CAVOK 21/08 Q...
Últimos QSOs:
2022/08/06-20:45 6m CT1ILT (FILIPE)
2022/08/05-09:40 2m CT2HKN (MG)
2022/08/05-09:37 2m CT1HIX/P ((GOMES))
2022/08/05-09:36 2m CT1MH/P (FRANCISCO)
2022/08/05-09:35 2m CT2HOV/P (NUNO)
2022/08/04-16:57 2m EA8ARI (RAFA)
  UTC
Rpi-6 CPU Temp: 0.0 °C (19Z)
IN51oq 1518Z /////KT //// 26/13 Q1019=
322012